createdAt,value
2018-12-23T00:00:17.097Z,9.37
2018-12-23T00:02:46.223Z,9.43
2018-12-23T00:05:15.282Z,9.80
2018-12-23T00:07:44.227Z,10.60
2018-12-23T00:10:13.237Z,12.07
2018-12-23T00:12:42.403Z,10.10
2018-12-23T00:15:11.397Z,9.90
2018-12-23T00:17:40.409Z,10.60
2018-12-23T00:20:09.765Z,9.93
2018-12-23T00:22:38.745Z,10.23
2018-12-23T00:25:07.803Z,9.77
2018-12-23T00:27:36.774Z,10.10
2018-12-23T00:30:07.771Z,9.97
2018-12-23T00:32:36.770Z,10.40
2018-12-23T00:35:05.802Z,10.00
2018-12-23T00:37:34.840Z,9.80
2018-12-23T00:40:04.034Z,11.07
2018-12-23T00:42:33.044Z,8.90
2018-12-23T00:45:02.179Z,9.20
2018-12-23T00:47:31.272Z,9.70
2018-12-23T00:50:00.319Z,9.73
2018-12-23T00:52:29.264Z,10.07
2018-12-23T00:54:58.271Z,9.90
2018-12-23T00:57:27.302Z,12.07
2018-12-23T00:59:56.326Z,10.10
2018-12-23T01:02:25.302Z,10.63
2018-12-23T01:04:54.279Z,11.37
2018-12-23T01:07:23.266Z,12.40
2018-12-23T01:09:52.304Z,12.00
2018-12-23T01:12:21.324Z,12.10
2018-12-23T01:14:50.473Z,11.50
2018-12-23T01:17:19.487Z,12.17
2018-12-23T01:19:48.475Z,12.77
2018-12-23T01:22:17.501Z,11.33
2018-12-23T01:24:46.561Z,10.90
2018-12-23T01:27:15.549Z,10.93
2018-12-23T01:29:44.568Z,11.63
2018-12-23T01:32:13.876Z,10.90
2018-12-23T01:34:42.974Z,12.47
2018-12-23T01:37:11.950Z,13.33
2018-12-23T01:39:40.918Z,14.03
2018-12-23T01:42:09.854Z,14.83
2018-12-23T01:44:38.934Z,13.27
2018-12-23T01:47:07.983Z,13.53
2018-12-23T01:49:36.931Z,13.23
2018-12-23T01:52:06.053Z,14.30
2018-12-23T01:54:35.160Z,15.73
2018-12-23T01:57:04.148Z,13.83
2018-12-23T01:59:33.354Z,15.97
2018-12-23T02:02:02.314Z,16.73
2018-12-23T02:04:31.442Z,15.90
2018-12-23T02:07:00.390Z,17.00
2018-12-23T02:09:29.459Z,17.30
2018-12-23T02:11:58.562Z,17.20
2018-12-23T02:14:27.625Z,17.03
2018-12-23T02:16:56.606Z,19.30
2018-12-23T02:19:25.643Z,18.50
2018-12-23T02:21:54.648Z,19.23
2018-12-23T02:24:23.712Z,19.37
2018-12-23T02:26:52.677Z,18.90
2018-12-23T02:29:21.700Z,19.50
2018-12-23T02:31:50.698Z,17.87
2018-12-23T02:34:19.675Z,19.97
2018-12-23T02:36:48.828Z,17.93
2018-12-23T02:39:17.753Z,19.37
2018-12-23T02:41:46.947Z,19.60
2018-12-23T02:44:15.898Z,18.53
2018-12-23T02:46:44.881Z,19.93
2018-12-23T02:49:14.147Z,20.60
2018-12-23T02:51:43.089Z,19.77
2018-12-23T02:54:12.093Z,17.50
2018-12-23T02:56:41.547Z,18.87
2018-12-23T02:59:10.540Z,18.47
2018-12-23T03:01:39.511Z,18.80
2018-12-23T03:04:08.559Z,18.97
2018-12-23T03:06:37.995Z,19.17
2018-12-23T03:09:07.362Z,19.37
2018-12-23T03:11:36.380Z,21.87
2018-12-23T03:14:05.387Z,20.43
2018-12-23T03:16:34.388Z,22.20
2018-12-23T03:19:03.493Z,21.70
2018-12-23T03:21:32.604Z,22.93
2018-12-23T03:24:01.589Z,22.77
2018-12-23T03:26:30.835Z,23.77
2018-12-23T03:29:00.442Z,24.27
2018-12-23T03:31:29.433Z,24.73
2018-12-23T03:33:58.398Z,23.70
2018-12-23T03:36:27.451Z,22.27
2018-12-23T03:38:56.407Z,24.47
2018-12-23T03:41:25.482Z,23.13
2018-12-23T03:43:54.522Z,22.30
2018-12-23T03:46:23.542Z,23.23
2018-12-23T03:48:52.640Z,23.20
2018-12-23T03:51:22.118Z,20.93
2018-12-23T03:53:51.048Z,20.23
2018-12-23T03:56:19.975Z,20.40
2018-12-23T03:58:48.946Z,22.53
2018-12-23T04:01:17.934Z,19.73
2018-12-23T04:03:47.006Z,20.10
2018-12-23T04:06:24.268Z,22.10
2018-12-23T04:08:45.134Z,20.87
2018-12-23T04:11:14.092Z,21.60
2018-12-23T04:13:43.377Z,18.60
2018-12-23T04:16:12.359Z,19.57
2018-12-23T04:18:41.334Z,17.43
2018-12-23T04:21:10.285Z,19.13
2018-12-23T04:23:39.261Z,18.80
2018-12-23T04:26:08.263Z,17.77
2018-12-23T04:28:37.355Z,19.90
2018-12-23T04:31:06.297Z,19.47
2018-12-23T04:33:35.324Z,18.47
2018-12-23T04:36:04.992Z,17.87
2018-12-23T04:38:33.978Z,19.17
2018-12-23T04:41:03.726Z,20.30
2018-12-23T04:43:32.727Z,16.77
2018-12-23T04:46:01.705Z,16.80
2018-12-23T04:48:30.690Z,19.13
2018-12-23T04:50:59.708Z,18.87
2018-12-23T04:53:28.836Z,20.83
2018-12-23T04:55:57.656Z,20.87
2018-12-23T04:58:26.638Z,19.77
2018-12-23T05:00:55.600Z,19.57
2018-12-23T05:03:25.356Z,18.87
2018-12-23T05:05:54.306Z,20.37
2018-12-23T05:08:23.331Z,18.90
2018-12-23T05:10:52.302Z,18.73
2018-12-23T05:13:21.253Z,20.83
2018-12-23T05:15:50.245Z,21.57
2018-12-23T05:18:19.675Z,21.47
2018-12-23T05:20:48.771Z,19.97
2018-12-23T05:23:17.745Z,20.80
2018-12-23T05:25:46.694Z,22.70
2018-12-23T05:28:15.724Z,22.83
2018-12-23T05:30:44.696Z,25.13
2018-12-23T05:33:13.641Z,22.63
2018-12-23T05:35:42.700Z,23.60
2018-12-23T05:38:11.664Z,22.07
2018-12-23T05:40:40.639Z,23.40
2018-12-23T05:43:09.569Z,18.13
2018-12-23T05:45:38.564Z,21.60
2018-12-23T05:48:07.530Z,20.17
2018-12-23T05:50:36.512Z,21.30
2018-12-23T05:53:05.495Z,22.03
2018-12-23T05:55:33.718Z,19.10
2018-12-23T05:58:03.474Z,21.10
2018-12-23T06:00:32.404Z,19.60
2018-12-23T06:03:02.113Z,21.13
2018-12-23T06:05:31.170Z,19.27
2018-12-23T06:08:00.224Z,21.57
2018-12-23T06:10:29.187Z,21.07
2018-12-23T06:12:58.369Z,18.10
2018-12-23T06:15:27.314Z,18.00
2018-12-23T06:17:56.318Z,19.07
2018-12-23T06:20:25.254Z,18.97
2018-12-23T06:22:54.322Z,18.93
2018-12-23T06:25:24.425Z,19.53
2018-12-23T06:27:53.488Z,17.27
2018-12-23T06:30:22.409Z,18.57
2018-12-23T06:32:51.445Z,18.33
2018-12-23T06:35:20.430Z,20.90
2018-12-23T06:37:49.369Z,17.33
2018-12-23T06:40:18.288Z,17.67
2018-12-23T06:42:47.757Z,20.30
2018-12-23T06:45:16.751Z,17.63
2018-12-23T06:47:45.765Z,18.97
2018-12-23T06:50:14.759Z,16.97
2018-12-23T06:52:43.799Z,17.90
2018-12-23T06:55:12.736Z,21.80
2018-12-23T06:57:42.355Z,19.20
2018-12-23T07:00:11.325Z,17.47
2018-12-23T07:02:40.405Z,19.93
2018-12-23T07:05:09.320Z,20.60
2018-12-23T07:07:38.314Z,18.43
2018-12-23T07:10:08.200Z,20.67
2018-12-23T07:12:37.164Z,21.10
2018-12-23T07:15:06.468Z,20.93
2018-12-23T07:17:35.404Z,17.77
2018-12-23T07:20:04.978Z,19.43
2018-12-23T07:22:33.966Z,20.07
2018-12-23T07:25:02.972Z,18.33
2018-12-23T07:27:32.646Z,16.60
2018-12-23T07:30:01.635Z,17.27
2018-12-23T07:32:30.637Z,16.63
2018-12-23T07:34:59.671Z,16.50
2018-12-23T07:37:28.583Z,18.07
2018-12-23T07:39:57.549Z,16.53
2018-12-23T07:42:26.542Z,16.50
2018-12-23T07:44:55.749Z,14.60
2018-12-23T07:47:24.629Z,14.93
2018-12-23T07:49:53.603Z,15.73
2018-12-23T07:52:22.761Z,14.10
2018-12-23T07:54:51.820Z,15.30
2018-12-23T07:57:20.799Z,17.50
2018-12-23T07:59:49.761Z,16.67
2018-12-23T08:02:19.301Z,17.50
2018-12-23T08:04:48.319Z,14.70
2018-12-23T08:07:17.316Z,14.33
2018-12-23T08:09:46.253Z,17.47
2018-12-23T08:12:15.247Z,13.17
2018-12-23T08:14:44.177Z,12.10
2018-12-23T08:17:13.170Z,15.33
2018-12-23T08:19:42.142Z,14.30
2018-12-23T08:22:11.117Z,12.47
2018-12-23T08:24:40.093Z,11.53
2018-12-23T08:27:09.343Z,10.27
2018-12-23T08:29:38.322Z,13.93
2018-12-23T08:32:07.290Z,14.23
2018-12-23T08:34:36.257Z,12.63
2018-12-23T08:37:05.207Z,12.63
2018-12-23T08:39:34.210Z,14.00
2018-12-23T08:42:03.180Z,11.20
2018-12-23T08:44:32.363Z,14.50
2018-12-23T08:47:01.374Z,13.40
2018-12-23T08:49:30.330Z,12.33
2018-12-23T08:51:59.276Z,10.40
2018-12-23T08:54:28.205Z,10.60
2018-12-23T08:56:58.552Z,12.60
2018-12-23T08:59:26.209Z,10.40
2018-12-23T09:01:55.270Z,11.40
2018-12-23T09:04:24.239Z,10.70
2018-12-23T09:06:53.195Z,10.23
2018-12-23T09:09:22.223Z,11.97
2018-12-23T09:11:52.140Z,8.77
2018-12-23T09:14:21.097Z,10.90
2018-12-23T09:16:50.144Z,12.87
2018-12-23T09:19:19.258Z,11.73
2018-12-23T09:21:48.179Z,11.20
2018-12-23T09:24:17.158Z,10.80
2018-12-23T09:26:46.137Z,10.07
2018-12-23T09:29:15.063Z,12.23
2018-12-23T09:31:44.066Z,11.47
2018-12-23T09:34:13.173Z,10.80
2018-12-23T09:36:42.257Z,11.53
2018-12-23T09:39:11.211Z,10.83
2018-12-23T09:41:40.217Z,8.63
2018-12-23T09:44:09.689Z,9.70
2018-12-23T09:46:38.653Z,10.17
2018-12-23T09:49:07.635Z,9.47
2018-12-23T09:51:36.760Z,12.10
2018-12-23T09:54:05.800Z,7.67
2018-12-23T09:56:34.888Z,7.73
2018-12-23T09:59:06.298Z,8.93
2018-12-23T10:01:36.900Z,7.50
2018-12-23T10:04:07.470Z,9.20
2018-12-23T10:06:37.319Z,8.87
2018-12-23T10:09:07.248Z,8.30
2018-12-23T10:11:36.967Z,7.70
2018-12-23T10:14:05.907Z,7.37
2018-12-23T10:16:35.170Z,8.83
2018-12-23T10:19:04.099Z,8.20
2018-12-23T10:21:33.065Z,10.83
2018-12-23T10:24:02.013Z,8.83
2018-12-23T10:26:31.009Z,8.77
2018-12-23T10:28:59.990Z,9.33
2018-12-23T10:31:28.990Z,10.30
2018-12-23T10:33:58.033Z,10.83
2018-12-23T10:36:27.020Z,8.90
2018-12-23T10:38:56.113Z,8.33
2018-12-23T10:41:25.092Z,11.10
2018-12-23T10:43:54.054Z,11.23
2018-12-23T10:46:23.040Z,10.47
2018-12-23T10:48:52.008Z,7.57
2018-12-23T10:51:21.022Z,7.40
2018-12-23T10:53:49.993Z,8.87
2018-12-23T10:56:18.986Z,7.90
2018-12-23T10:58:48.584Z,7.23
2018-12-23T11:01:17.536Z,9.90
2018-12-23T11:03:46.647Z,6.83
2018-12-23T11:06:15.890Z,8.00
2018-12-23T11:08:44.919Z,10.30
2018-12-23T11:11:13.896Z,7.50
2018-12-23T11:13:42.938Z,9.07
2018-12-23T11:16:11.959Z,8.57
2018-12-23T11:18:41.021Z,6.60
2018-12-23T11:21:10.050Z,8.13
2018-12-23T11:23:39.127Z,10.17
2018-12-23T11:26:08.053Z,10.33
2018-12-23T11:28:38.046Z,8.50
2018-12-23T11:31:06.974Z,9.07
2018-12-23T11:33:35.941Z,8.23
2018-12-23T11:36:04.897Z,8.83
2018-12-23T11:38:35.694Z,15.07
2018-12-23T11:41:03.267Z,9.53
2018-12-23T11:43:32.223Z,9.93
2018-12-23T11:46:01.178Z,9.73
2018-12-23T11:48:30.173Z,13.03
2018-12-23T11:50:59.210Z,13.63
2018-12-23T11:53:28.282Z,11.00
2018-12-23T11:55:57.267Z,13.57
2018-12-23T11:58:26.293Z,11.77
2018-12-23T12:00:55.282Z,12.20
2018-12-23T12:03:24.300Z,10.57
2018-12-23T12:05:53.230Z,12.00
2018-12-23T12:08:22.343Z,12.33
2018-12-23T12:10:51.540Z,10.53
2018-12-23T12:13:25.386Z,12.80
2018-12-23T12:15:55.806Z,10.20
2018-12-23T12:18:25.075Z,10.20
2018-12-23T12:20:54.073Z,10.13
2018-12-23T12:23:23.706Z,10.23
2018-12-23T12:25:52.792Z,13.30
2018-12-23T12:28:21.753Z,11.50
2018-12-23T12:30:50.800Z,14.03
2018-12-23T12:33:19.976Z,12.47
2018-12-23T12:35:48.972Z,11.67
2018-12-23T12:38:17.995Z,11.07
2018-12-23T12:40:46.922Z,12.70
2018-12-23T12:43:15.905Z,10.13
2018-12-23T12:45:44.978Z,14.87
2018-12-23T12:48:13.982Z,11.73
2018-12-23T12:50:43.067Z,16.97
2018-12-23T12:53:12.117Z,10.53
2018-12-23T12:55:41.095Z,12.17
2018-12-23T12:58:10.194Z,12.13
2018-12-23T13:00:39.182Z,12.97
2018-12-23T13:03:08.207Z,17.47
2018-12-23T13:05:37.228Z,12.00
2018-12-23T13:08:06.374Z,11.13
2018-12-23T13:10:36.451Z,14.27
2018-12-23T13:13:05.642Z,13.03
2018-12-23T13:15:34.607Z,11.17
2018-12-23T13:18:04.571Z,12.40
2018-12-23T13:20:33.541Z,9.63
2018-12-23T13:23:03.150Z,10.87
2018-12-23T13:25:32.177Z,11.90
2018-12-23T13:28:01.217Z,13.37
2018-12-23T13:30:30.334Z,13.43
2018-12-23T13:33:00.637Z,10.00
2018-12-23T13:35:41.049Z,15.00
2018-12-23T13:38:13.372Z,14.30
2018-12-23T13:40:53.325Z,13.60
2018-12-23T13:43:34.123Z,12.30
2018-12-23T13:47:27.900Z,14.23
2018-12-23T13:52:15.194Z,16.30
2018-12-23T13:54:59.457Z,14.57
2018-12-23T13:58:38.568Z,13.87
2018-12-23T14:01:21.495Z,16.30
2018-12-23T14:04:58.085Z,14.27
2018-12-23T14:07:40.653Z,14.87
2018-12-23T14:10:19.458Z,18.63
2018-12-23T14:12:48.454Z,15.37
2018-12-23T14:15:17.583Z,19.40
2018-12-23T14:17:47.736Z,14.90
2018-12-23T14:20:15.927Z,15.30
2018-12-23T14:22:51.470Z,19.47
2018-12-23T14:25:20.706Z,17.57
2018-12-23T14:27:49.709Z,17.60
2018-12-23T14:30:18.653Z,19.93
2018-12-23T14:32:47.673Z,17.13
2018-12-23T14:35:16.688Z,18.47
2018-12-23T14:37:45.723Z,22.23
2018-12-23T14:40:14.832Z,18.00
2018-12-23T14:42:43.881Z,14.30
2018-12-23T14:45:12.832Z,13.23
2018-12-23T14:47:41.820Z,21.10
2018-12-23T14:50:10.789Z,14.40
2018-12-23T14:52:40.257Z,10.03
2018-12-23T14:55:09.354Z,8.53
2018-12-23T14:57:38.419Z,9.20
2018-12-23T15:00:09.088Z,8.20
2018-12-23T15:02:40.704Z,8.80
2018-12-23T15:05:09.947Z,7.47
2018-12-23T15:07:39.498Z,10.03
2018-12-23T15:10:09.128Z,7.43
2018-12-23T15:12:38.096Z,5.97
2018-12-23T15:15:07.117Z,24.43
2018-12-23T15:17:36.187Z,11.03
2018-12-23T15:20:06.185Z,10.63
2018-12-23T15:22:35.531Z,11.07
2018-12-23T15:25:04.727Z,11.73
2018-12-23T15:27:33.783Z,12.53
2018-12-23T15:30:02.792Z,14.13
2018-12-23T15:32:31.731Z,15.73
2018-12-23T15:35:01.177Z,21.67
2018-12-23T15:37:30.113Z,17.07
2018-12-23T15:39:59.860Z,26.47
2018-12-23T15:42:28.908Z,20.67
2018-12-23T15:44:58.173Z,19.60
2018-12-23T15:47:27.298Z,20.67
2018-12-23T15:49:56.406Z,16.30
2018-12-23T15:52:25.453Z,20.13
2018-12-23T15:54:54.500Z,20.03
2018-12-23T15:57:23.495Z,20.23
2018-12-23T15:59:54.429Z,15.37
2018-12-23T16:02:24.235Z,16.37
2018-12-23T16:04:54.709Z,17.30
2018-12-23T16:07:22.518Z,15.63
2018-12-23T16:09:51.662Z,15.30
2018-12-23T16:12:20.991Z,19.43
2018-12-23T16:14:49.982Z,13.83
2018-12-23T16:17:18.944Z,11.23
2018-12-23T16:19:47.946Z,14.00
2018-12-23T16:22:17.122Z,10.87
2018-12-23T16:24:46.180Z,13.23
2018-12-23T16:27:15.272Z,13.77
2018-12-23T16:29:44.296Z,10.83
2018-12-23T16:32:13.401Z,12.10
2018-12-23T16:34:42.412Z,11.27
2018-12-23T16:37:11.463Z,16.03
2018-12-23T16:39:40.454Z,13.30
2018-12-23T16:42:09.638Z,13.37
2018-12-23T16:44:38.664Z,14.40
2018-12-23T16:47:07.929Z,14.97
2018-12-23T16:49:36.935Z,17.63
2018-12-23T16:52:06.019Z,16.90
2018-12-23T16:54:35.047Z,16.90
2018-12-23T16:57:04.334Z,17.03
2018-12-23T16:59:33.299Z,16.23
2018-12-23T17:02:02.426Z,17.33
2018-12-23T17:04:31.523Z,15.77
2018-12-23T17:07:00.583Z,19.97
2018-12-23T17:09:29.703Z,17.73
2018-12-23T17:11:58.745Z,20.10
2018-12-23T17:14:27.978Z,16.33
2018-12-23T17:16:57.216Z,15.77
2018-12-23T17:19:26.277Z,20.97
2018-12-23T17:21:55.594Z,20.90
2018-12-23T17:24:24.647Z,17.63
2018-12-23T17:26:53.635Z,14.60
2018-12-23T17:29:22.619Z,18.63
2018-12-23T17:31:51.622Z,18.37
2018-12-23T17:34:20.589Z,18.20
2018-12-23T17:36:49.597Z,17.23
2018-12-23T17:39:18.603Z,16.80
2018-12-23T17:41:47.620Z,18.27
2018-12-23T17:44:17.158Z,15.70
2018-12-23T17:46:46.176Z,18.23
2018-12-23T17:49:15.183Z,19.03
2018-12-23T17:51:44.143Z,22.27
2018-12-23T17:54:13.225Z,15.87
2018-12-23T17:56:42.228Z,21.63
2018-12-23T17:59:11.251Z,19.80
2018-12-23T18:01:40.251Z,21.00
2018-12-23T18:04:09.267Z,23.07
2018-12-23T18:06:38.522Z,19.63
2018-12-23T18:09:08.458Z,18.40
2018-12-23T18:11:38.010Z,21.43
2018-12-23T18:14:07.050Z,20.87
2018-12-23T18:16:36.354Z,21.47
2018-12-23T18:19:05.458Z,17.87
2018-12-23T18:21:34.732Z,17.33
2018-12-23T18:24:03.784Z,19.77
2018-12-23T18:26:35.944Z,22.00
2018-12-23T18:29:10.810Z,20.43
2018-12-23T18:31:48.138Z,17.07
